Time;durP1;ratioP1;P1;durP2;ratioP2;P2;SDS_P1;SDS_P2;PMS_P1;PMS_P2;Temp;Humidity;BMP_temperature;BMP_pressure;BME280_temperature;BME280_humidity;BME280_pressure;Samples;Min_cycle;Max_cycle;Signal;HPM_P1;HPM_P2
2023/11/12 00:02:17;;;;;;;16.73;10.93;;;9.50;99.90;;;;;;5024137;28;20117;-67
2023/11/12 00:04:45;;;;;;;14.88;9.77;;;9.40;99.90;;;;;;5020879;28;20130;-69
2023/11/12 00:07:12;;;;;;;327.33;153.77;;;9.40;99.90;;;;;;5024699;28;20056;-70
2023/11/12 00:09:40;;;;;;;324.30;162.95;;;9.70;99.90;;;;;;5027410;28;20033;-69
2023/11/12 00:12:08;;;;;;;135.05;75.75;;;9.80;99.90;;;;;;5029493;28;20452;-69
2023/11/12 00:14:35;;;;;;;71.43;44.38;;;9.60;99.90;;;;;;5028703;28;20073;-70
2023/11/12 00:17:03;;;;;;;26.30;16.50;;;9.40;99.90;;;;;;5028076;28;20404;-71
2023/11/12 00:19:32;;;;;;;18.40;11.98;;;9.20;99.90;;;;;;5027587;28;20052;-69
2023/11/12 00:22:00;;;;;;;18.67;11.38;;;9.00;99.90;;;;;;5025135;28;20120;-69
2023/11/12 00:24:28;;;;;;;18.92;11.15;;;8.80;99.90;;;;;;5025762;28;20041;-68
2023/11/12 00:26:55;;;;;;;19.88;11.57;;;8.90;99.90;;;;;;5027906;28;20048;-69
2023/11/12 00:29:22;;;;;;;13.10;9.23;;;9.00;99.90;;;;;;5025371;28;20030;-69
2023/11/12 00:31:50;;;;;;;15.18;9.25;;;8.80;99.90;;;;;;5026874;28;20037;-71
2023/11/12 00:34:17;;;;;;;14.80;9.15;;;8.90;99.90;;;;;;5028145;28;20060;-69
2023/11/12 00:36:45;;;;;;;11.55;8.75;;;8.80;99.90;;;;;;5028823;28;20033;-71
2023/11/12 00:39:12;;;;;;;16.63;9.27;;;8.70;99.90;;;;;;5025981;28;20124;-68
2023/11/12 00:41:39;;;;;;;15.82;9.38;;;8.60;99.90;;;;;;5025438;28;20044;-68
2023/11/12 00:44:10;;;;;;;16.08;10.13;;;8.60;99.90;;;;;;5023068;28;20038;-69
2023/11/12 00:46:40;;;;;;;13.38;9.98;;;8.50;99.90;;;;;;5027587;28;20099;-70
2023/11/12 00:49:08;;;;;;;15.43;9.88;;;8.60;99.90;;;;;;5027822;28;20588;-70
2023/11/12 00:51:36;;;;;;;16.55;9.48;;;8.70;99.90;;;;;;5028513;28;20103;-69
2023/11/12 00:54:03;;;;;;;14.07;9.68;;;8.70;99.90;;;;;;5028664;28;20365;-70
2023/11/12 00:56:48;;;;;;;15.15;10.35;;;8.80;99.90;;;;;;5011187;28;20030;-71
2023/11/12 00:59:15;;;;;;;18.10;10.18;;;8.80;99.90;;;;;;5029014;28;20527;-70
2023/11/12 01:01:43;;;;;;;15.02;9.85;;;8.80;99.90;;;;;;5026099;28;20068;-70
2023/11/12 01:04:11;;;;;;;17.10;10.80;;;8.60;99.90;;;;;;5025280;28;20041;-69
2023/11/12 01:06:38;;;;;;;16.00;9.90;;;8.40;99.90;;;;;;5029135;28;20037;-71
2023/11/12 01:09:08;;;;;;;15.85;10.43;;;8.40;99.90;;;;;;5024513;28;20053;-69
2023/11/12 01:11:37;;;;;;;18.33;10.57;;;8.50;99.90;;;;;;5029251;28;20041;-71
2023/11/12 01:14:04;;;;;;;16.33;9.90;;;8.50;99.90;;;;;;5029541;28;20038;-70
2023/11/12 01:16:31;;;;;;;15.35;9.43;;;8.30;99.90;;;;;;5028937;28;20107;-69
2023/11/12 01:18:59;;;;;;;15.02;8.93;;;8.30;99.90;;;;;;5026615;28;20065;-69
2023/11/12 01:21:27;;;;;;;12.13;9.35;;;8.40;99.90;;;;;;5027424;28;20030;-69
2023/11/12 01:23:54;;;;;;;13.73;9.38;;;8.30;99.90;;;;;;5011883;28;20053;-69
2023/11/12 01:26:24;;;;;;;13.05;8.77;;;8.40;99.90;;;;;;5028404;28;20081;-69
2023/11/12 01:28:52;;;;;;;12.63;9.40;;;8.40;99.90;;;;;;5030992;28;20397;-69
2023/11/12 01:31:20;;;;;;;14.68;9.95;;;8.20;99.90;;;;;;5008995;28;20140;-70
2023/11/12 01:33:47;;;;;;;14.10;9.30;;;8.20;99.90;;;;;;5027445;28;20377;-70
2023/11/12 01:36:14;;;;;;;16.42;9.15;;;8.10;99.90;;;;;;5029149;28;20409;-70
2023/11/12 01:38:42;;;;;;;12.38;8.68;;;8.10;99.90;;;;;;5028887;28;20048;-70
2023/11/12 01:41:09;;;;;;;12.27;7.65;;;8.10;99.90;;;;;;5028774;28;20389;-69
2023/11/12 01:43:37;;;;;;;11.93;8.65;;;7.90;99.90;;;;;;5027287;28;20045;-70
2023/11/12 01:46:07;;;;;;;12.63;8.75;;;7.80;99.90;;;;;;5027058;28;20483;-70
2023/11/12 01:48:35;;;;;;;13.48;8.73;;;7.70;99.90;;;;;;5030916;28;20390;-70
2023/11/12 01:51:04;;;;;;;13.82;8.23;;;7.90;99.90;;;;;;5031123;28;20041;-69
2023/11/12 01:53:34;;;;;;;18.00;9.13;;;8.10;99.90;;;;;;5029303;28;20085;-68
2023/11/12 01:56:05;;;;;;;10.48;8.23;;;8.00;99.90;;;;;;5004813;28;20449;-69
2023/11/12 01:58:32;;;;;;;13.75;8.98;;;8.10;99.90;;;;;;5023130;28;20087;-69
2023/11/12 02:01:00;;;;;;;13.75;9.98;;;8.20;99.90;;;;;;5013790;28;20069;-70
2023/11/12 02:03:28;;;;;;;11.88;8.75;;;8.20;99.90;;;;;;5019249;28;20096;-68
2023/11/12 02:05:56;;;;;;;14.43;8.93;;;8.20;99.90;;;;;;5018736;28;20117;-69
2023/11/12 02:08:23;;;;;;;11.48;8.93;;;8.30;99.90;;;;;;5020892;28;20057;-69
2023/11/12 02:10:50;;;;;;;13.43;9.40;;;8.40;99.90;;;;;;5023288;28;20030;-67
2023/11/12 02:13:19;;;;;;;14.18;9.60;;;8.30;99.90;;;;;;5021046;28;20076;-68
2023/11/12 02:15:47;;;;;;;10.93;8.18;;;8.30;99.90;;;;;;5003915;28;20493;-67
2023/11/12 02:18:14;;;;;;;11.32;8.40;;;8.20;99.90;;;;;;5024720;28;20058;-68
2023/11/12 02:20:46;;;;;;;12.02;8.70;;;8.10;99.90;;;;;;5002807;28;20061;-68
2023/11/12 02:23:17;;;;;;;9.65;8.10;;;8.20;99.90;;;;;;5022157;28;20045;-69
2023/11/12 02:25:45;;;;;;;12.57;8.25;;;8.20;99.90;;;;;;5021718;28;20048;-68
2023/11/12 02:28:21;;;;;;;13.88;8.52;;;8.30;99.90;;;;;;5022897;28;20120;-68
2023/11/12 02:30:53;;;;;;;12.85;8.95;;;8.30;99.90;;;;;;5002511;28;20133;-68
2023/11/12 02:33:26;;;;;;;11.15;8.35;;;8.30;99.90;;;;;;5022887;28;20038;-68
2023/11/12 02:35:55;;;;;;;11.05;8.43;;;8.10;99.90;;;;;;5013773;28;20409;-67
2023/11/12 02:38:23;;;;;;;14.95;8.55;;;8.20;99.90;;;;;;5004947;28;20053;-68
2023/11/12 02:40:51;;;;;;;14.27;8.70;;;8.10;99.90;;;;;;5021804;28;20065;-69
2023/11/12 02:43:20;;;;;;;9.30;8.15;;;8.20;99.90;;;;;;5017565;28;20045;-70
2023/11/12 02:45:47;;;;;;;13.02;8.75;;;8.30;99.90;;;;;;5023087;28;20041;-68
2023/11/12 02:48:15;;;;;;;11.82;8.52;;;8.30;99.90;;;;;;5023654;28;20037;-68
2023/11/12 02:50:43;;;;;;;11.00;8.13;;;8.30;99.90;;;;;;5017298;28;20045;-68
2023/11/12 02:53:11;;;;;;;12.05;9.00;;;8.10;99.90;;;;;;5025697;28;20444;-67
2023/11/12 02:55:40;;;;;;;13.40;8.63;;;8.00;99.90;;;;;;5030883;28;20399;-68
2023/11/12 02:58:07;;;;;;;15.82;9.23;;;8.20;99.90;;;;;;5036252;28;20044;-68
2023/11/12 03:00:35;;;;;;;11.05;8.82;;;8.20;99.90;;;;;;5028193;28;20040;-69
2023/11/12 03:03:02;;;;;;;15.73;8.98;;;8.30;99.90;;;;;;5036016;28;20048;-69
2023/11/12 03:05:33;;;;;;;13.50;9.23;;;8.20;99.90;;;;;;5030973;28;20037;-67
2023/11/12 03:08:01;;;;;;;12.07;10.00;;;7.90;99.90;;;;;;5034342;28;20038;-68
2023/11/12 03:10:28;;;;;;;12.02;8.90;;;8.00;99.90;;;;;;5019888;28;20694;-69
2023/11/12 03:12:55;;;;;;;14.43;9.63;;;8.10;99.90;;;;;;5033638;28;20038;-68
2023/11/12 03:15:25;;;;;;;13.00;8.63;;;8.10;99.90;;;;;;5034134;28;20041;-69
2023/11/12 03:17:53;;;;;;;14.55;9.25;;;8.30;99.90;;;;;;5036901;28;20047;-70
2023/11/12 03:20:20;;;;;;;11.30;8.98;;;8.40;99.90;;;;;;5031716;28;20060;-69
2023/11/12 03:22:48;;;;;;;12.20;8.95;;;8.30;99.90;;;;;;5033455;28;20094;-69
2023/11/12 03:25:15;;;;;;;12.32;9.10;;;8.30;99.90;;;;;;5032999;28;20037;-69
2023/11/12 03:27:42;;;;;;;10.10;8.18;;;8.30;99.90;;;;;;5032620;28;20088;-70
2023/11/12 03:30:10;;;;;;;13.35;8.57;;;8.30;99.90;;;;;;5034931;28;20045;-70
2023/11/12 03:32:38;;;;;;;10.18;8.80;;;8.40;99.90;;;;;;5035164;28;20036;-67
2023/11/12 03:35:06;;;;;;;11.38;9.02;;;8.50;99.90;;;;;;5050182;28;20044;-70
2023/11/12 03:37:33;;;;;;;12.13;8.85;;;8.50;99.90;;;;;;5030542;28;20114;-69
2023/11/12 03:40:01;;;;;;;11.93;8.43;;;8.30;99.90;;;;;;5035445;28;20069;-69
2023/11/12 03:42:28;;;;;;;12.68;8.60;;;8.20;99.90;;;;;;5014817;28;20041;-69
2023/11/12 03:44:56;;;;;;;16.35;8.60;;;8.30;99.90;;;;;;5032662;28;20034;-69
2023/11/12 03:47:24;;;;;;;14.50;9.25;;;8.50;99.90;;;;;;5021096;28;20091;-69
2023/11/12 03:49:51;;;;;;;11.10;9.50;;;8.50;99.90;;;;;;5034359;28;20443;-68
2023/11/12 03:52:18;;;;;;;16.35;9.38;;;8.30;99.90;;;;;;5027918;28;20046;-69
2023/11/12 03:54:46;;;;;;;12.77;9.80;;;8.30;99.90;;;;;;5030152;28;20053;-68
2023/11/12 03:57:14;;;;;;;12.05;9.15;;;8.40;99.90;;;;;;5028993;28;20052;-68
2023/11/12 03:59:41;;;;;;;15.13;8.85;;;8.40;99.90;;;;;;5026342;28;20064;-68
2023/11/12 04:02:08;;;;;;;13.02;8.60;;;8.50;99.90;;;;;;5029819;28;20044;-67
2023/11/12 04:04:36;;;;;;;10.98;8.38;;;8.10;99.90;;;;;;5025928;28;20034;-69
2023/11/12 04:07:03;;;;;;;12.93;9.45;;;8.20;99.90;;;;;;5020019;28;20107;-67
2023/11/12 04:09:31;;;;;;;13.85;9.60;;;8.40;99.90;;;;;;5027143;28;20098;-68
2023/11/12 04:11:58;;;;;;;10.93;8.93;;;8.60;99.90;;;;;;5029648;28;20068;-69
2023/11/12 04:14:25;;;;;;;14.68;10.13;;;8.70;99.90;;;;;;5029827;28;20045;-69
2023/11/12 04:16:52;;;;;;;15.00;9.38;;;8.60;99.90;;;;;;5030106;28;20448;-68
2023/11/12 04:19:20;;;;;;;11.82;9.05;;;8.60;99.90;;;;;;5029809;28;20041;-68
2023/11/12 04:21:47;;;;;;;14.65;9.90;;;8.40;99.90;;;;;;5025860;28;20820;-68
2023/11/12 04:24:14;;;;;;;16.80;9.95;;;8.50;99.90;;;;;;5018666;28;20045;-69
2023/11/12 04:26:43;;;;;;;19.00;9.38;;;8.50;99.90;;;;;;5024824;28;20045;-68
2023/11/12 04:29:13;;;;;;;15.02;9.15;;;8.50;99.90;;;;;;5027732;28;20056;-67
2023/11/12 04:31:40;;;;;;;12.57;8.43;;;8.60;99.90;;;;;;5025204;28;20033;-67
2023/11/12 04:34:08;;;;;;;12.45;8.60;;;8.60;99.90;;;;;;5029581;28;20408;-67
2023/11/12 04:36:35;;;;;;;14.38;9.00;;;8.60;99.90;;;;;;5030083;28;20057;-69
2023/11/12 04:39:03;;;;;;;11.93;8.48;;;8.50;99.90;;;;;;5029308;28;20045;-69
2023/11/12 04:41:31;;;;;;;12.13;8.75;;;8.50;99.90;;;;;;5028527;28;20496;-69
2023/11/12 04:43:59;;;;;;;15.07;8.20;;;8.50;99.90;;;;;;5025670;28;20037;-67
2023/11/12 04:46:27;;;;;;;12.43;8.93;;;8.50;99.90;;;;;;5028967;28;20043;-68
2023/11/12 04:48:55;;;;;;;11.98;8.88;;;8.60;99.90;;;;;;5029193;28;20041;-70
2023/11/12 04:51:22;;;;;;;12.35;8.80;;;8.50;99.90;;;;;;5025498;28;20034;-69
2023/11/12 04:53:50;;;;;;;13.73;9.35;;;8.40;99.90;;;;;;5027989;28;20600;-70
2023/11/12 04:56:17;;;;;;;12.57;9.23;;;8.30;99.90;;;;;;5027268;28;20053;-69
2023/11/12 04:58:45;;;;;;;10.52;8.45;;;8.10;99.90;;;;;;5029659;28;20041;-68
2023/11/12 05:01:12;;;;;;;16.40;9.45;;;8.30;99.90;;;;;;5012496;28;20049;-67
2023/11/12 05:03:40;;;;;;;12.23;8.93;;;8.40;99.90;;;;;;5028455;28;20114;-68
2023/11/12 05:06:08;;;;;;;13.75;9.00;;;8.50;99.90;;;;;;5029427;28;20048;-68
2023/11/12 05:08:37;;;;;;;15.48;8.57;;;8.40;99.90;;;;;;5028917;28;20136;-69
2023/11/12 05:11:05;;;;;;;14.25;8.27;;;8.20;99.90;;;;;;5031927;28;20393;-69
2023/11/12 05:13:32;;;;;;;13.70;8.60;;;8.00;99.90;;;;;;5013210;28;20095;-70
2023/11/12 05:15:59;;;;;;;16.83;8.90;;;8.10;99.90;;;;;;5028968;28;20048;-69
2023/11/12 05:18:27;;;;;;;12.15;8.73;;;8.10;99.90;;;;;;5029277;28;20038;-67
2023/11/12 05:20:54;;;;;;;14.73;8.90;;;8.20;99.90;;;;;;5028491;28;20049;-70
2023/11/12 05:23:21;;;;;;;12.82;8.57;;;8.10;99.90;;;;;;5030730;28;20045;-68
2023/11/12 05:25:49;;;;;;;10.60;8.25;;;8.10;99.90;;;;;;5032371;28;20468;-69
2023/11/12 05:28:16;;;;;;;10.43;7.78;;;8.20;99.90;;;;;;5030238;28;20037;-69
2023/11/12 05:30:43;;;;;;;10.15;8.00;;;8.20;99.90;;;;;;5032996;28;20041;-69
2023/11/12 05:33:10;;;;;;;11.18;8.18;;;8.00;99.90;;;;;;5033781;28;20413;-68
2023/11/12 05:35:38;;;;;;;13.18;7.85;;;8.20;99.90;;;;;;5034208;28;20040;-68
2023/11/12 05:38:05;;;;;;;9.95;7.93;;;8.40;99.90;;;;;;5032168;28;20041;-68
2023/11/12 05:40:32;;;;;;;13.25;8.05;;;8.40;99.90;;;;;;5031907;28;20396;-69
2023/11/12 05:43:00;;;;;;;9.95;7.85;;;8.30;99.90;;;;;;5032771;28;20040;-68
2023/11/12 05:45:29;;;;;;;11.10;8.15;;;8.40;99.90;;;;;;5030287;28;20046;-68
2023/11/12 05:47:57;;;;;;;11.80;8.02;;;8.70;99.90;;;;;;5032850;28;20037;-68
2023/11/12 05:50:24;;;;;;;16.27;8.73;;;8.80;99.90;;;;;;5032949;28;20037;-69
2023/11/12 05:52:52;;;;;;;13.82;8.20;;;8.70;99.90;;;;;;5027474;28;20050;-69
2023/11/12 05:55:19;;;;;;;10.93;7.95;;;8.70;99.90;;;;;;5003656;28;20051;-69
2023/11/12 05:57:47;;;;;;;11.70;8.30;;;8.80;99.90;;;;;;5010783;28;20092;-67
2023/11/12 06:00:15;;;;;;;13.20;8.40;;;8.80;99.90;;;;;;4996047;28;20057;-69
2023/11/12 06:02:42;;;;;;;13.80;9.73;;;8.70;99.90;;;;;;4995781;28;20050;-68
2023/11/12 06:05:09;;;;;;;13.65;8.82;;;8.70;99.90;;;;;;5019975;28;20038;-68
2023/11/12 06:07:37;;;;;;;9.82;7.75;;;8.70;99.90;;;;;;5016018;28;20041;-69
2023/11/12 06:10:04;;;;;;;13.20;8.57;;;8.50;99.90;;;;;;5016548;28;20042;-69
2023/11/12 06:12:31;;;;;;;16.05;7.72;;;8.20;99.90;;;;;;5015700;28;20400;-69
2023/11/12 06:14:59;;;;;;;12.98;8.52;;;8.10;99.90;;;;;;5014091;28;20116;-68
2023/11/12 06:17:26;;;;;;;13.70;8.55;;;8.10;99.90;;;;;;5019956;28;20480;-68
2023/11/12 06:19:53;;;;;;;17.10;9.27;;;8.10;99.90;;;;;;5015527;28;20112;-68
2023/11/12 06:22:20;;;;;;;14.93;9.60;;;8.10;99.90;;;;;;5015305;28;20091;-69
2023/11/12 06:24:47;;;;;;;11.93;9.30;;;8.00;99.90;;;;;;5014843;28;20050;-69
2023/11/12 06:27:15;;;;;;;16.58;9.52;;;8.10;99.90;;;;;;5023626;28;20046;-68
2023/11/12 06:29:43;;;;;;;14.10;10.52;;;8.00;99.90;;;;;;5011879;28;20135;-68
2023/11/12 06:32:11;;;;;;;11.60;8.68;;;8.00;99.90;;;;;;4999802;28;20053;-69
2023/11/12 06:34:38;;;;;;;12.45;8.50;;;8.00;99.90;;;;;;4997508;28;20054;-70
2023/11/12 06:37:05;;;;;;;9.15;7.38;;;8.00;99.90;;;;;;5013094;28;20390;-68
2023/11/12 06:39:33;;;;;;;7.15;6.13;;;8.10;99.90;;;;;;5016475;28;20050;-67
2023/11/12 06:42:00;;;;;;;7.63;6.10;;;8.20;99.90;;;;;;5011371;28;20135;-69
2023/11/12 06:44:28;;;;;;;10.65;6.93;;;8.20;99.90;;;;;;5016943;28;20050;-69
2023/11/12 06:46:57;;;;;;;7.68;6.05;;;8.30;99.90;;;;;;5013376;28;20045;-69
2023/11/12 06:49:24;;;;;;;8.63;6.35;;;8.50;99.90;;;;;;5015512;28;20076;-69
2023/11/12 06:51:51;;;;;;;6.13;5.53;;;8.70;99.90;;;;;;5013675;28;20121;-71
2023/11/12 06:54:19;;;;;;;8.95;5.70;;;8.70;99.90;;;;;;5025311;28;20045;-69
2023/11/12 06:56:46;;;;;;;8.20;6.32;;;8.60;99.90;;;;;;5022714;28;20041;-69
2023/11/12 06:59:13;;;;;;;9.07;5.85;;;8.40;99.90;;;;;;5031503;28;20046;-68
2023/11/12 07:01:41;;;;;;;10.77;6.03;;;8.60;99.90;;;;;;5033438;28;20041;-67
2023/11/12 07:04:10;;;;;;;7.88;6.28;;;8.70;99.90;;;;;;5027328;28;20058;-67
2023/11/12 07:06:38;;;;;;;9.98;7.15;;;8.80;99.90;;;;;;5024396;28;20127;-69
2023/11/12 07:09:05;;;;;;;11.15;7.68;;;9.10;99.90;;;;;;5024570;28;20045;-68
2023/11/12 07:11:32;;;;;;;11.00;7.68;;;9.10;99.90;;;;;;5030685;28;20444;-69
2023/11/12 07:14:17;;;;;;;9.50;6.63;;;9.20;99.90;;;;;;5028119;28;20033;-68
2023/11/12 07:16:44;;;;;;;8.32;5.70;;;9.10;99.90;;;;;;5029468;28;20485;-69
2023/11/12 07:19:13;;;;;;;10.13;7.07;;;9.10;99.90;;;;;;5009758;28;20045;-67
2023/11/12 07:21:40;;;;;;;12.32;6.55;;;9.30;99.90;;;;;;5028078;28;20029;-68
2023/11/12 07:24:08;;;;;;;9.55;7.20;;;9.10;99.90;;;;;;5026831;28;20072;-68
2023/11/12 07:26:35;;;;;;;10.80;6.20;;;9.20;99.90;;;;;;4996382;28;20042;-68
2023/11/12 07:29:03;;;;;;;7.35;5.63;;;9.30;99.90;;;;;;5026791;28;20103;-69
2023/11/12 07:31:30;;;;;;;8.65;5.95;;;9.30;99.90;;;;;;5025595;28;20099;-68
2023/11/12 07:33:57;;;;;;;6.80;5.90;;;9.40;99.90;;;;;;5027116;28;20042;-68
2023/11/12 07:36:24;;;;;;;9.15;6.35;;;9.70;99.90;;;;;;5030724;28;20107;-70
2023/11/12 07:38:52;;;;;;;6.78;5.25;;;9.70;99.90;;;;;;5030103;28;20048;-70
2023/11/12 07:41:19;;;;;;;8.60;6.45;;;9.70;99.90;;;;;;5030968;28;20037;-69
2023/11/12 07:43:47;;;;;;;6.07;4.82;;;9.70;99.90;;;;;;5028934;28;20092;-68
2023/11/12 07:46:14;;;;;;;6.15;4.72;;;9.60;99.90;;;;;;5025453;28;20448;-68
2023/11/12 07:48:42;;;;;;;7.40;4.78;;;9.80;99.90;;;;;;5028236;28;20034;-68
2023/11/12 07:51:10;;;;;;;8.27;5.30;;;9.80;99.90;;;;;;5027371;28;20041;-69
2023/11/12 07:53:38;;;;;;;6.15;4.75;;;10.00;99.90;;;;;;5029796;28;20057;-67
2023/11/12 07:56:09;;;;;;;6.97;5.13;;;10.30;99.90;;;;;;5024650;28;20041;-69
2023/11/12 07:58:37;;;;;;;6.68;4.95;;;10.40;99.90;;;;;;5028837;28;20029;-67
2023/11/12 08:01:04;;;;;;;42.25;22.63;;;10.70;99.90;;;;;;5022332;28;20037;-67
2023/11/12 08:03:32;;;;;;;9.93;7.82;;;11.10;99.90;;;;;;5023412;28;20041;-67
2023/11/12 08:06:00;;;;;;;12.10;8.48;;;11.40;99.90;;;;;;5024079;28;20107;-67
2023/11/12 08:08:27;;;;;;;8.05;5.47;;;11.40;99.90;;;;;;5026771;28;20108;-67
2023/11/12 08:10:54;;;;;;;8.30;5.72;;;11.20;99.90;;;;;;5023881;28;20121;-67
2023/11/12 08:13:21;;;;;;;9.85;5.63;;;11.00;99.90;;;;;;5028539;28;20107;-68
2023/11/12 08:15:49;;;;;;;7.63;4.97;;;11.30;99.90;;;;;;5023673;28;20069;-67
2023/11/12 08:18:16;;;;;;;11.50;5.43;;;11.60;99.90;;;;;;5029770;28;20042;-68
2023/11/12 08:20:43;;;;;;;7.75;5.15;;;11.60;99.90;;;;;;5027543;28;20484;-68
2023/11/12 08:23:11;;;;;;;9.15;5.63;;;11.80;99.90;;;;;;5026723;28;20485;-69
2023/11/12 08:25:38;;;;;;;6.85;4.90;;;11.90;99.90;;;;;;5022337;28;20038;-68
2023/11/12 08:28:05;;;;;;;6.78;4.53;;;12.00;99.90;;;;;;5029691;28;20120;-69
2023/11/12 08:30:32;;;;;;;7.85;5.10;;;12.00;99.90;;;;;;5027547;28;20045;-70
2023/11/12 08:33:01;;;;;;;6.40;4.55;;;12.00;99.90;;;;;;5009777;28;20045;-69
2023/11/12 08:35:30;;;;;;;9.00;4.78;;;12.00;99.90;;;;;;5024318;28;20045;-69
2023/11/12 08:37:59;;;;;;;8.38;4.70;;;12.20;99.90;;;;;;5010485;28;20037;-69
2023/11/12 08:40:26;;;;;;;8.00;4.35;;;12.20;99.90;;;;;;5026967;28;20046;-67
2023/11/12 08:42:54;;;;;;;6.45;4.13;;;12.60;99.90;;;;;;5022673;28;20041;-70
2023/11/12 08:45:21;;;;;;;7.72;4.72;;;12.90;99.90;;;;;;5026032;28;20417;-68
2023/11/12 08:47:55;;;;;;;6.75;4.40;;;13.20;99.90;;;;;;5025502;28;20041;-67
2023/11/12 08:50:22;;;;;;;7.18;4.50;;;13.50;99.90;;;;;;5024716;28;20041;-69
2023/11/12 08:52:49;;;;;;;5.68;4.07;;;13.70;99.90;;;;;;5026997;28;20046;-67
2023/11/12 08:55:18;;;;;;;6.75;3.90;;;13.70;99.90;;;;;;5025346;28;20133;-69
2023/11/12 08:57:45;;;;;;;5.72;4.10;;;13.90;99.90;;;;;;5027712;28;20038;-71
2023/11/12 09:00:13;;;;;;;22.08;14.30;;;14.00;99.90;;;;;;5028063;28;20102;-70
2023/11/12 09:02:40;;;;;;;33.28;20.15;;;14.30;99.90;;;;;;5029036;28;20069;-68
2023/11/12 09:05:08;;;;;;;9.60;6.20;;;14.20;98.50;;;;;;5025327;28;20037;-69
2023/11/12 09:07:36;;;;;;;7.57;3.95;;;14.00;98.20;;;;;;5029187;28;20080;-71
2023/11/12 09:10:05;;;;;;;12.63;5.47;;;14.00;97.80;;;;;;5025866;28;20053;-72
2023/11/12 09:12:32;;;;;;;31.95;17.90;;;14.10;98.30;;;;;;5011794;28;20026;-68
2023/11/12 09:15:00;;;;;;;48.50;29.42;;;14.60;97.30;;;;;;5006375;28;20087;-68
2023/11/12 09:17:28;;;;;;;48.13;28.50;;;14.90;97.70;;;;;;5006675;28;20083;-70
2023/11/12 09:19:56;;;;;;;30.67;20.08;;;15.30;98.10;;;;;;5011091;28;20045;-68
2023/11/12 09:22:24;;;;;;;8.27;6.53;;;15.40;96.70;;;;;;5028412;28;20099;-69
2023/11/12 09:24:51;;;;;;;6.50;4.38;;;15.10;95.40;;;;;;5025360;28;20068;-71
2023/11/12 09:27:35;;;;;;;6.70;3.40;;;14.80;95.50;;;;;;5027831;28;20190;-71
2023/11/12 09:30:03;;;;;;;4.45;2.75;;;14.50;95.70;;;;;;5010976;28;20099;-71
2023/11/12 09:32:30;;;;;;;4.65;3.00;;;14.20;95.80;;;;;;5027248;28;20396;-71
2023/11/12 09:34:58;;;;;;;4.85;3.05;;;14.20;96.10;;;;;;5027095;28;20573;-70
2023/11/12 09:37:25;;;;;;;4.57;3.35;;;14.00;96.10;;;;;;5025190;28;20080;-71
2023/11/12 09:39:54;;;;;;;5.18;3.22;;;13.80;96.40;;;;;;5026547;28;20042;-70
2023/11/12 09:42:25;;;;;;;4.10;3.00;;;13.80;96.50;;;;;;5024612;28;20455;-69
2023/11/12 09:44:59;;;;;;;4.00;3.00;;;13.70;95.80;;;;;;5028358;28;20443;-69
2023/11/12 09:48:01;;;;;;;4.47;2.88;;;13.80;94.60;;;;;;5025444;28;20045;-72
2023/11/12 09:50:30;;;;;;;4.93;3.38;;;13.90;94.30;;;;;;5018926;28;20064;-71
2023/11/12 09:53:03;;;;;;;9.00;3.22;;;13.60;94.70;;;;;;5009503;28;20041;-70
2023/11/12 09:55:30;;;;;;;8.43;3.22;;;13.50;94.90;;;;;;5030017;28;20048;-71
2023/11/12 09:58:01;;;;;;;5.20;3.58;;;13.50;95.00;;;;;;5012778;28;20044;-72
2023/11/12 10:00:32;;;;;;;;;;;13.50;95.80;;;;;;5035463;28;20084;-69
2023/11/12 10:03:05;;;;;;;4.30;3.28;;;13.70;96.10;;;;;;5030578;28;19925;-71
2023/11/12 10:05:34;;;;;;;4.40;3.22;;;13.60;96.10;;;;;;5026870;28;20543;-71
2023/11/12 10:08:02;;;;;;;6.32;3.90;;;13.50;96.50;;;;;;5025181;28;20118;-70
2023/11/12 10:10:30;;;;;;;6.13;3.67;;;13.50;96.80;;;;;;5035333;28;20075;-72
2023/11/12 10:12:58;;;;;;;6.43;3.75;;;13.50;96.90;;;;;;5035221;28;20497;-69
2023/11/12 10:15:33;;;;;;;6.65;3.60;;;13.50;96.50;;;;;;5041623;28;20110;-72
2023/11/12 10:18:02;;;;;;;5.53;3.58;;;13.40;96.60;;;;;;5035686;28;20045;-72
2023/11/12 10:20:40;;;;;;;10.77;3.58;;;13.20;96.90;;;;;;5034154;28;20044;-70
2023/11/12 10:23:25;;;;;;;9.95;4.75;;;13.20;96.80;;;;;;5036363;28;20528;-71
2023/11/12 10:25:59;;;;;;;5.93;3.63;;;13.30;97.50;;;;;;5032083;28;20037;-70
2023/11/12 10:28:33;;;;;;;5.18;3.88;;;13.40;96.50;;;;;;5035569;28;20041;-71
2023/11/12 10:31:01;;;;;;;6.45;4.25;;;13.40;97.10;;;;;;5032302;28;20037;-73
2023/11/12 10:33:29;;;;;;;6.68;4.63;;;13.50;96.90;;;;;;5037120;28;20041;-70
2023/11/12 10:35:56;;;;;;;566.67;319.25;;;13.60;97.00;;;;;;5037638;28;20121;-71
2023/11/12 10:38:24;;;;;;;74.05;59.75;;;13.90;97.40;;;;;;5034834;28;20392;-68
2023/11/12 10:41:04;;;;;;;16.83;14.02;;;13.90;96.40;;;;;;5013815;28;20688;-68
2023/11/12 10:43:35;;;;;;;6.97;5.38;;;13.80;96.40;;;;;;5033168;28;20079;-71
2023/11/12 10:46:03;;;;;;;9.77;4.47;;;13.80;96.50;;;;;;5031686;28;20052;-71
2023/11/12 10:48:34;;;;;;;9.18;4.82;;;13.80;96.70;;;;;;5032696;28;20037;-71
2023/11/12 10:51:06;;;;;;;8.68;4.85;;;13.90;96.70;;;;;;5033752;28;20116;-72
2023/11/12 10:53:36;;;;;;;7.32;4.45;;;13.90;96.10;;;;;;5032443;28;20115;-70
2023/11/12 10:56:05;;;;;;;8.90;4.93;;;13.90;96.30;;;;;;5031549;28;20073;-70
2023/11/12 10:58:34;;;;;;;7.30;4.43;;;14.00;96.10;;;;;;5031300;28;20034;-69
2023/11/12 11:01:04;;;;;;;7.97;4.82;;;14.00;96.30;;;;;;5030943;28;20076;-71
2023/11/12 11:03:33;;;;;;;7.65;4.82;;;13.90;96.40;;;;;;5031212;28;20034;-71
2023/11/12 11:06:05;;;;;;;13.52;7.95;;;13.90;96.70;;;;;;5031612;28;20041;-70
2023/11/12 11:08:34;;;;;;;46.63;27.02;;;14.00;97.30;;;;;;5028833;28;20038;-69
2023/11/12 11:11:03;;;;;;;9.30;6.22;;;14.10;96.70;;;;;;5031658;28;20113;-69
2023/11/12 11:13:36;;;;;;;8.45;4.85;;;13.70;96.50;;;;;;5025951;28;20127;-70
2023/11/12 11:16:04;;;;;;;7.00;4.20;;;13.70;96.40;;;;;;5010930;28;20041;-71
2023/11/12 11:18:32;;;;;;;9.30;4.75;;;13.70;96.60;;;;;;5025297;28;20128;-69
2023/11/12 11:21:02;;;;;;;7.32;4.97;;;13.70;96.60;;;;;;5030162;28;20515;-70
2023/11/12 11:23:44;;;;;;;40.42;24.25;;;13.80;96.90;;;;;;5029485;28;20126;-69
2023/11/12 11:26:24;;;;;;;22.63;14.73;;;14.00;97.40;;;;;;5031882;28;20389;-69
2023/11/12 11:29:13;;;;;;;42.15;25.08;;;13.90;96.60;;;;;;5031930;28;20076;-68
2023/11/12 11:31:43;;;;;;;52.00;32.08;;;14.00;96.50;;;;;;5033149;28;20040;-69
2023/11/12 11:34:12;;;;;;;51.00;27.35;;;14.00;96.30;;;;;;5033663;28;20405;-69
2023/11/12 11:36:58;;;;;;;87.50;44.95;;;14.00;96.40;;;;;;5052687;28;20080;-67
2023/11/12 11:39:28;;;;;;;73.30;45.83;;;13.80;95.90;;;;;;5032592;28;20040;-68
2023/11/12 11:41:55;;;;;;;26.45;17.33;;;13.80;95.90;;;;;;5014964;28;20045;-68
2023/11/12 11:44:38;;;;;;;9.68;7.05;;;13.80;95.80;;;;;;5033962;28;20048;-68
2023/11/12 11:47:14;;;;;;;10.82;4.28;;;13.70;96.10;;;;;;5031238;28;20044;-67
2023/11/12 11:49:44;;;;;;;5.47;3.80;;;13.70;96.30;;;;;;5034089;28;20033;-65
2023/11/12 11:52:24;;;;;;;6.50;3.85;;;13.50;96.60;;;;;;5035988;28;20038;-67
2023/11/12 11:55:22;;;;;;;6.57;3.97;;;13.40;97.00;;;;;;5032312;28;20037;-68
2023/11/12 11:57:51;;;;;;;6.57;4.32;;;13.30;97.20;;;;;;5026714;28;20183;-67
2023/11/12 12:00:19;;;;;;;8.95;4.38;;;13.40;97.50;;;;;;5032442;28;20038;-68
2023/11/12 12:02:46;;;;;;;6.10;4.10;;;13.30;97.90;;;;;;5030223;28;20104;-68
2023/11/12 12:05:25;;;;;;;5.97;3.75;;;13.30;98.00;;;;;;5025794;28;20075;-68
2023/11/12 12:08:00;;;;;;;7.97;4.90;;;13.30;98.20;;;;;;5024850;28;20575;-69
2023/11/12 12:10:29;;;;;;;10.63;4.60;;;13.30;98.30;;;;;;5027511;28;20046;-68
2023/11/12 12:12:56;;;;;;;7.75;4.75;;;13.30;98.20;;;;;;5035000;28;20034;-69
2023/11/12 12:15:24;;;;;;;15.15;8.93;;;13.30;98.60;;;;;;5022285;28;20113;-68
2023/11/12 12:17:51;;;;;;;9.45;6.50;;;13.40;98.80;;;;;;5029476;28;20041;-67
2023/11/12 12:20:18;;;;;;;9.80;6.03;;;13.40;98.70;;;;;;5030858;28;20029;-69
2023/11/12 12:22:46;;;;;;;6.55;4.60;;;13.30;98.40;;;;;;5024322;28;20405;-70
2023/11/12 12:25:16;;;;;;;6.70;4.10;;;13.20;98.60;;;;;;5029386;28;20096;-70
2023/11/12 12:27:52;;;;;;;7.65;3.80;;;13.20;98.60;;;;;;5025775;28;20168;-66
2023/11/12 12:30:20;;;;;;;5.45;3.53;;;13.20;98.40;;;;;;5002680;28;20038;-67
2023/11/12 12:32:48;;;;;;;6.13;4.18;;;13.10;98.70;;;;;;5027828;28;20041;-69
2023/11/12 12:35:23;;;;;;;6.80;4.32;;;13.10;99.00;;;;;;5029462;28;20033;-69
2023/11/12 12:37:50;;;;;;;7.10;3.90;;;12.80;99.80;;;;;;5028343;28;20045;-69
2023/11/12 12:40:27;;;;;;;7.13;4.20;;;12.60;99.90;;;;;;5031806;28;20033;-69
2023/11/12 12:42:58;;;;;;;5.45;4.10;;;12.50;99.90;;;;;;5026125;28;20041;-65
2023/11/12 12:45:25;;;;;;;7.50;4.80;;;12.40;99.90;;;;;;5023215;28;20047;-69
2023/11/12 12:47:55;;;;;;;9.02;4.97;;;12.40;99.90;;;;;;5029559;28;20408;-70
2023/11/12 12:50:29;;;;;;;7.70;4.50;;;12.30;99.90;;;;;;5029294;28;20397;-68
2023/11/12 12:53:20;;;;;;;7.20;4.45;;;12.20;99.90;;;;;;5027883;28;20053;-68
2023/11/12 12:55:48;;;;;;;5.65;4.00;;;12.20;99.90;;;;;;5011479;28;20030;-69